sensor_id;sensor_type;location;lat;lon;timestamp;P1;durP1;ratioP1;P2;durP2;ratioP2
78931;SDS011;68331;53.362;55.932;2024-03-22T00:01:54;77.43;;;37.30;;
78931;SDS011;68331;53.362;55.932;2024-03-22T00:04:20;82.25;;;38.58;;
78931;SDS011;68331;53.362;55.932;2024-03-22T00:06:47;85.85;;;37.75;;
78931;SDS011;68331;53.362;55.932;2024-03-22T00:09:14;85.72;;;37.85;;
78931;SDS011;68331;53.362;55.932;2024-03-22T00:11:41;77.15;;;37.20;;
78931;SDS011;68331;53.362;55.932;2024-03-22T00:14:07;83.68;;;39.08;;
78931;SDS011;68331;53.362;55.932;2024-03-22T00:16:34;83.28;;;39.33;;
78931;SDS011;68331;53.362;55.932;2024-03-22T00:19:00;84.93;;;38.40;;
78931;SDS011;68331;53.362;55.932;2024-03-22T00:21:27;82.07;;;36.45;;
78931;SDS011;68331;53.362;55.932;2024-03-22T00:23:53;84.35;;;38.72;;
78931;SDS011;68331;53.362;55.932;2024-03-22T00:26:20;84.68;;;38.20;;
78931;SDS011;68331;53.362;55.932;2024-03-22T00:28:45;80.78;;;38.35;;
78931;SDS011;68331;53.362;55.932;2024-03-22T00:31:11;77.03;;;38.05;;
78931;SDS011;68331;53.362;55.932;2024-03-22T00:33:37;77.72;;;37.50;;
78931;SDS011;68331;53.362;55.932;2024-03-22T00:36:03;88.22;;;40.03;;
78931;SDS011;68331;53.362;55.932;2024-03-22T00:38:29;84.88;;;40.40;;
78931;SDS011;68331;53.362;55.932;2024-03-22T00:40:55;80.88;;;38.10;;
78931;SDS011;68331;53.362;55.932;2024-03-22T00:43:21;86.95;;;37.90;;
78931;SDS011;68331;53.362;55.932;2024-03-22T00:45:47;76.70;;;37.20;;
78931;SDS011;68331;53.362;55.932;2024-03-22T00:48:13;89.15;;;39.63;;
78931;SDS011;68331;53.362;55.932;2024-03-22T00:50:39;85.43;;;37.05;;
78931;SDS011;68331;53.362;55.932;2024-03-22T00:53:05;82.90;;;36.70;;
78931;SDS011;68331;53.362;55.932;2024-03-22T00:55:33;79.13;;;36.65;;
78931;SDS011;68331;53.362;55.932;2024-03-22T00:57:59;80.68;;;38.65;;
78931;SDS011;68331;53.362;55.932;2024-03-22T01:00:25;75.25;;;36.05;;
78931;SDS011;68331;53.362;55.932;2024-03-22T01:02:51;70.93;;;32.30;;
78931;SDS011;68331;53.362;55.932;2024-03-22T01:05:17;68.10;;;34.33;;
78931;SDS011;68331;53.362;55.932;2024-03-22T01:07:43;70.18;;;31.60;;
78931;SDS011;68331;53.362;55.932;2024-03-22T01:10:10;70.65;;;33.30;;
78931;SDS011;68331;53.362;55.932;2024-03-22T01:12:37;61.83;;;29.75;;
78931;SDS011;68331;53.362;55.932;2024-03-22T01:15:04;67.30;;;30.88;;
78931;SDS011;68331;53.362;55.932;2024-03-22T01:17:31;70.68;;;32.33;;
78931;SDS011;68331;53.362;55.932;2024-03-22T01:19:57;75.32;;;33.28;;
78931;SDS011;68331;53.362;55.932;2024-03-22T01:22:23;62.97;;;30.08;;
78931;SDS011;68331;53.362;55.932;2024-03-22T01:24:49;63.15;;;29.92;;
78931;SDS011;68331;53.362;55.932;2024-03-22T01:27:15;67.88;;;31.88;;
78931;SDS011;68331;53.362;55.932;2024-03-22T01:29:41;70.18;;;32.53;;
78931;SDS011;68331;53.362;55.932;2024-03-22T01:32:07;74.43;;;32.80;;
78931;SDS011;68331;53.362;55.932;2024-03-22T01:34:33;76.72;;;32.85;;
78931;SDS011;68331;53.362;55.932;2024-03-22T01:37:00;83.03;;;36.78;;
78931;SDS011;68331;53.362;55.932;2024-03-22T01:39:26;92.53;;;37.28;;
78931;SDS011;68331;53.362;55.932;2024-03-22T01:41:52;78.57;;;36.78;;
78931;SDS011;68331;53.362;55.932;2024-03-22T01:44:18;84.57;;;38.08;;
78931;SDS011;68331;53.362;55.932;2024-03-22T01:46:44;86.13;;;36.75;;
78931;SDS011;68331;53.362;55.932;2024-03-22T01:49:13;84.15;;;38.38;;
78931;SDS011;68331;53.362;55.932;2024-03-22T01:51:41;91.28;;;38.05;;
78931;SDS011;68331;53.362;55.932;2024-03-22T01:54:10;83.13;;;37.55;;
78931;SDS011;68331;53.362;55.932;2024-03-22T01:56:37;92.07;;;39.72;;
78931;SDS011;68331;53.362;55.932;2024-03-22T01:59:07;91.53;;;40.60;;
78931;SDS011;68331;53.362;55.932;2024-03-22T02:01:33;92.05;;;38.10;;
78931;SDS011;68331;53.362;55.932;2024-03-22T02:04:00;88.25;;;38.15;;
78931;SDS011;68331;53.362;55.932;2024-03-22T02:06:26;83.50;;;37.05;;
78931;SDS011;68331;53.362;55.932;2024-03-22T02:08:52;83.70;;;38.75;;
78931;SDS011;68331;53.362;55.932;2024-03-22T02:11:18;85.25;;;34.90;;
78931;SDS011;68331;53.362;55.932;2024-03-22T02:13:44;82.30;;;37.55;;
78931;SDS011;68331;53.362;55.932;2024-03-22T02:16:10;80.13;;;36.65;;
78931;SDS011;68331;53.362;55.932;2024-03-22T02:18:36;73.63;;;35.70;;
78931;SDS011;68331;53.362;55.932;2024-03-22T02:21:02;77.13;;;33.17;;
78931;SDS011;68331;53.362;55.932;2024-03-22T02:23:34;81.75;;;38.05;;
78931;SDS011;68331;53.362;55.932;2024-03-22T02:26:01;73.53;;;31.40;;
78931;SDS011;68331;53.362;55.932;2024-03-22T02:28:29;79.50;;;33.75;;
78931;SDS011;68331;53.362;55.932;2024-03-22T02:30:55;73.38;;;36.22;;
78931;SDS011;68331;53.362;55.932;2024-03-22T02:33:21;76.65;;;34.90;;
78931;SDS011;68331;53.362;55.932;2024-03-22T02:35:47;85.40;;;36.33;;
78931;SDS011;68331;53.362;55.932;2024-03-22T02:38:14;71.82;;;35.33;;
78931;SDS011;68331;53.362;55.932;2024-03-22T02:40:40;78.95;;;37.63;;
78931;SDS011;68331;53.362;55.932;2024-03-22T02:43:06;83.95;;;37.20;;
78931;SDS011;68331;53.362;55.932;2024-03-22T02:45:32;85.80;;;37.63;;
78931;SDS011;68331;53.362;55.932;2024-03-22T02:47:57;78.22;;;37.20;;
78931;SDS011;68331;53.362;55.932;2024-03-22T02:50:23;83.30;;;35.28;;
78931;SDS011;68331;53.362;55.932;2024-03-22T02:52:49;90.00;;;38.70;;
78931;SDS011;68331;53.362;55.932;2024-03-22T02:55:16;78.78;;;35.47;;
78931;SDS011;68331;53.362;55.932;2024-03-22T02:57:43;86.05;;;37.65;;
78931;SDS011;68331;53.362;55.932;2024-03-22T03:00:09;97.63;;;41.45;;
78931;SDS011;68331;53.362;55.932;2024-03-22T03:02:35;90.10;;;39.80;;
78931;SDS011;68331;53.362;55.932;2024-03-22T03:05:01;82.70;;;39.05;;
78931;SDS011;68331;53.362;55.932;2024-03-22T03:07:28;88.28;;;38.22;;
78931;SDS011;68331;53.362;55.932;2024-03-22T03:09:54;83.97;;;36.58;;
78931;SDS011;68331;53.362;55.932;2024-03-22T03:12:20;81.53;;;37.33;;
78931;SDS011;68331;53.362;55.932;2024-03-22T03:14:45;84.60;;;36.20;;
78931;SDS011;68331;53.362;55.932;2024-03-22T03:17:11;76.82;;;34.90;;
78931;SDS011;68331;53.362;55.932;2024-03-22T03:19:37;80.45;;;38.35;;
78931;SDS011;68331;53.362;55.932;2024-03-22T03:22:03;81.80;;;37.30;;
78931;SDS011;68331;53.362;55.932;2024-03-22T03:24:30;78.95;;;34.88;;
78931;SDS011;68331;53.362;55.932;2024-03-22T03:26:56;87.80;;;38.28;;
78931;SDS011;68331;53.362;55.932;2024-03-22T03:29:22;78.00;;;36.92;;
78931;SDS011;68331;53.362;55.932;2024-03-22T03:31:48;79.97;;;37.95;;
78931;SDS011;68331;53.362;55.932;2024-03-22T03:34:14;82.80;;;35.92;;
78931;SDS011;68331;53.362;55.932;2024-03-22T03:36:41;87.70;;;37.70;;
78931;SDS011;68331;53.362;55.932;2024-03-22T03:39:06;85.53;;;36.45;;
78931;SDS011;68331;53.362;55.932;2024-03-22T03:41:32;90.93;;;37.72;;
78931;SDS011;68331;53.362;55.932;2024-03-22T03:43:58;83.70;;;40.33;;
78931;SDS011;68331;53.362;55.932;2024-03-22T03:46:24;98.15;;;40.28;;
78931;SDS011;68331;53.362;55.932;2024-03-22T03:48:50;77.35;;;36.22;;
78931;SDS011;68331;53.362;55.932;2024-03-22T03:51:16;85.30;;;37.60;;
78931;SDS011;68331;53.362;55.932;2024-03-22T03:53:42;80.07;;;40.13;;
78931;SDS011;68331;53.362;55.932;2024-03-22T03:56:08;85.68;;;37.38;;
78931;SDS011;68331;53.362;55.932;2024-03-22T03:58:33;76.90;;;36.25;;
78931;SDS011;68331;53.362;55.932;2024-03-22T04:01:04;82.93;;;37.22;;
78931;SDS011;68331;53.362;55.932;2024-03-22T04:03:31;81.30;;;37.83;;
78931;SDS011;68331;53.362;55.932;2024-03-22T04:05:57;73.20;;;33.88;;
78931;SDS011;68331;53.362;55.932;2024-03-22T04:08:24;72.45;;;32.65;;
78931;SDS011;68331;53.362;55.932;2024-03-22T04:10:53;75.32;;;34.38;;
78931;SDS011;68331;53.362;55.932;2024-03-22T04:13:25;76.88;;;34.97;;
78931;SDS011;68331;53.362;55.932;2024-03-22T04:15:52;73.82;;;35.05;;
78931;SDS011;68331;53.362;55.932;2024-03-22T04:18:18;75.82;;;34.75;;
78931;SDS011;68331;53.362;55.932;2024-03-22T04:20:54;66.80;;;34.03;;
78931;SDS011;68331;53.362;55.932;2024-03-22T04:23:21;75.45;;;33.63;;
78931;SDS011;68331;53.362;55.932;2024-03-22T04:25:54;77.82;;;35.00;;
78931;SDS011;68331;53.362;55.932;2024-03-22T04:28:25;73.30;;;34.47;;
78931;SDS011;68331;53.362;55.932;2024-03-22T04:33:31;69.70;;;34.22;;
78931;SDS011;68331;53.362;55.932;2024-03-22T04:35:59;78.40;;;37.97;;
78931;SDS011;68331;53.362;55.932;2024-03-22T04:38:26;71.20;;;35.22;;
78931;SDS011;68331;53.362;55.932;2024-03-22T04:40:52;75.32;;;35.30;;
78931;SDS011;68331;53.362;55.932;2024-03-22T04:43:19;74.20;;;35.60;;
78931;SDS011;68331;53.362;55.932;2024-03-22T04:45:46;71.80;;;34.47;;
78931;SDS011;68331;53.362;55.932;2024-03-22T04:48:14;70.65;;;34.53;;
78931;SDS011;68331;53.362;55.932;2024-03-22T04:50:40;70.60;;;36.67;;
78931;SDS011;68331;53.362;55.932;2024-03-22T04:53:06;67.43;;;34.38;;
78931;SDS011;68331;53.362;55.932;2024-03-22T04:55:32;70.10;;;34.75;;
78931;SDS011;68331;53.362;55.932;2024-03-22T04:57:58;71.75;;;34.78;;
78931;SDS011;68331;53.362;55.932;2024-03-22T05:00:24;67.20;;;34.88;;
78931;SDS011;68331;53.362;55.932;2024-03-22T05:02:51;70.30;;;37.75;;
78931;SDS011;68331;53.362;55.932;2024-03-22T05:05:17;66.30;;;36.10;;
78931;SDS011;68331;53.362;55.932;2024-03-22T05:07:44;72.95;;;34.78;;
78931;SDS011;68331;53.362;55.932;2024-03-22T05:10:10;70.32;;;35.80;;
78931;SDS011;68331;53.362;55.932;2024-03-22T05:12:36;74.50;;;36.92;;
78931;SDS011;68331;53.362;55.932;2024-03-22T05:15:02;67.22;;;36.40;;
78931;SDS011;68331;53.362;55.932;2024-03-22T05:17:29;74.88;;;36.15;;
78931;SDS011;68331;53.362;55.932;2024-03-22T05:19:57;77.75;;;36.17;;
78931;SDS011;68331;53.362;55.932;2024-03-22T05:22:24;73.53;;;36.63;;
78931;SDS011;68331;53.362;55.932;2024-03-22T05:24:50;68.57;;;35.67;;
78931;SDS011;68331;53.362;55.932;2024-03-22T05:27:17;74.15;;;37.80;;
78931;SDS011;68331;53.362;55.932;2024-03-22T05:29:43;77.63;;;38.70;;
78931;SDS011;68331;53.362;55.932;2024-03-22T05:32:09;78.78;;;40.35;;
78931;SDS011;68331;53.362;55.932;2024-03-22T05:34:35;71.25;;;39.17;;
78931;SDS011;68331;53.362;55.932;2024-03-22T05:37:02;71.75;;;38.20;;
78931;SDS011;68331;53.362;55.932;2024-03-22T05:39:28;78.20;;;37.85;;
78931;SDS011;68331;53.362;55.932;2024-03-22T05:41:54;74.07;;;38.30;;
78931;SDS011;68331;53.362;55.932;2024-03-22T05:44:23;77.50;;;38.55;;
78931;SDS011;68331;53.362;55.932;2024-03-22T05:46:49;76.18;;;39.55;;
78931;SDS011;68331;53.362;55.932;2024-03-22T05:49:15;68.78;;;38.90;;
78931;SDS011;68331;53.362;55.932;2024-03-22T05:51:41;79.03;;;39.95;;
78931;SDS011;68331;53.362;55.932;2024-03-22T05:54:07;69.28;;;38.05;;
78931;SDS011;68331;53.362;55.932;2024-03-22T05:56:33;75.03;;;39.63;;
78931;SDS011;68331;53.362;55.932;2024-03-22T05:58:59;77.97;;;37.47;;
78931;SDS011;68331;53.362;55.932;2024-03-22T06:01:25;68.95;;;36.42;;
78931;SDS011;68331;53.362;55.932;2024-03-22T06:03:51;66.65;;;36.13;;
78931;SDS011;68331;53.362;55.932;2024-03-22T06:06:17;72.82;;;37.63;;
78931;SDS011;68331;53.362;55.932;2024-03-22T06:08:43;69.63;;;38.67;;
78931;SDS011;68331;53.362;55.932;2024-03-22T06:11:10;71.65;;;38.83;;
78931;SDS011;68331;53.362;55.932;2024-03-22T06:13:37;73.60;;;39.40;;
78931;SDS011;68331;53.362;55.932;2024-03-22T06:16:03;71.80;;;39.17;;
78931;SDS011;68331;53.362;55.932;2024-03-22T06:18:29;67.72;;;37.55;;
78931;SDS011;68331;53.362;55.932;2024-03-22T06:20:55;67.78;;;37.15;;
78931;SDS011;68331;53.362;55.932;2024-03-22T06:23:21;72.70;;;37.40;;
78931;SDS011;68331;53.362;55.932;2024-03-22T06:25:51;70.57;;;37.15;;
78931;SDS011;68331;53.362;55.932;2024-03-22T06:28:18;65.47;;;36.75;;
78931;SDS011;68331;53.362;55.932;2024-03-22T06:30:43;65.75;;;37.47;;
78931;SDS011;68331;53.362;55.932;2024-03-22T06:33:09;64.03;;;35.42;;
78931;SDS011;68331;53.362;55.932;2024-03-22T06:35:35;71.10;;;36.78;;
78931;SDS011;68331;53.362;55.932;2024-03-22T06:38:01;70.07;;;36.88;;
78931;SDS011;68331;53.362;55.932;2024-03-22T06:40:28;70.95;;;38.38;;
78931;SDS011;68331;53.362;55.932;2024-03-22T06:42:54;66.32;;;37.70;;
78931;SDS011;68331;53.362;55.932;2024-03-22T06:45:20;72.00;;;38.60;;
78931;SDS011;68331;53.362;55.932;2024-03-22T06:47:47;72.80;;;38.15;;
78931;SDS011;68331;53.362;55.932;2024-03-22T06:50:13;66.53;;;36.03;;
78931;SDS011;68331;53.362;55.932;2024-03-22T06:52:39;65.63;;;36.90;;
78931;SDS011;68331;53.362;55.932;2024-03-22T06:55:05;60.35;;;37.85;;
78931;SDS011;68331;53.362;55.932;2024-03-22T06:57:32;64.35;;;39.63;;
78931;SDS011;68331;53.362;55.932;2024-03-22T07:02:25;63.13;;;37.88;;
78931;SDS011;68331;53.362;55.932;2024-03-22T07:04:51;66.60;;;38.08;;
78931;SDS011;68331;53.362;55.932;2024-03-22T07:07:18;64.07;;;37.50;;
78931;SDS011;68331;53.362;55.932;2024-03-22T07:09:44;76.18;;;41.97;;
78931;SDS011;68331;53.362;55.932;2024-03-22T07:12:11;70.90;;;41.03;;
78931;SDS011;68331;53.362;55.932;2024-03-22T07:14:37;77.43;;;42.10;;
78931;SDS011;68331;53.362;55.932;2024-03-22T07:17:02;73.32;;;41.47;;
78931;SDS011;68331;53.362;55.932;2024-03-22T07:19:28;76.30;;;41.70;;
78931;SDS011;68331;53.362;55.932;2024-03-22T07:21:54;75.03;;;41.67;;
78931;SDS011;68331;53.362;55.932;2024-03-22T07:24:20;78.97;;;43.10;;
78931;SDS011;68331;53.362;55.932;2024-03-22T07:26:49;77.00;;;42.50;;
78931;SDS011;68331;53.362;55.932;2024-03-22T07:29:15;74.47;;;41.70;;
78931;SDS011;68331;53.362;55.932;2024-03-22T07:31:41;74.53;;;40.88;;
78931;SDS011;68331;53.362;55.932;2024-03-22T07:34:07;75.18;;;40.33;;
78931;SDS011;68331;53.362;55.932;2024-03-22T07:36:36;78.60;;;40.83;;
78931;SDS011;68331;53.362;55.932;2024-03-22T07:39:03;79.28;;;41.05;;
78931;SDS011;68331;53.362;55.932;2024-03-22T07:41:32;80.65;;;41.70;;
78931;SDS011;68331;53.362;55.932;2024-03-22T07:43:58;79.10;;;42.20;;
78931;SDS011;68331;53.362;55.932;2024-03-22T07:46:28;79.60;;;40.13;;
78931;SDS011;68331;53.362;55.932;2024-03-22T07:48:54;84.97;;;43.13;;
78931;SDS011;68331;53.362;55.932;2024-03-22T07:51:20;79.55;;;42.20;;
78931;SDS011;68331;53.362;55.932;2024-03-22T07:53:46;78.80;;;42.50;;
78931;SDS011;68331;53.362;55.932;2024-03-22T07:56:12;77.90;;;40.63;;
78931;SDS011;68331;53.362;55.932;2024-03-22T07:58:38;89.80;;;43.60;;
78931;SDS011;68331;53.362;55.932;2024-03-22T08:01:04;92.90;;;44.92;;
78931;SDS011;68331;53.362;55.932;2024-03-22T08:03:30;88.65;;;45.03;;
78931;SDS011;68331;53.362;55.932;2024-03-22T08:05:56;92.22;;;46.70;;
78931;SDS011;68331;53.362;55.932;2024-03-22T08:08:22;93.97;;;43.53;;
78931;SDS011;68331;53.362;55.932;2024-03-22T08:10:48;86.40;;;44.70;;
78931;SDS011;68331;53.362;55.932;2024-03-22T08:13:14;97.63;;;47.40;;
78931;SDS011;68331;53.362;55.932;2024-03-22T08:15:40;90.90;;;45.83;;
78931;SDS011;68331;53.362;55.932;2024-03-22T08:18:06;88.40;;;46.05;;
78931;SDS011;68331;53.362;55.932;2024-03-22T08:20:32;82.32;;;43.65;;
78931;SDS011;68331;53.362;55.932;2024-03-22T08:22:59;85.28;;;43.97;;
78931;SDS011;68331;53.362;55.932;2024-03-22T08:25:25;79.60;;;41.03;;
78931;SDS011;68331;53.362;55.932;2024-03-22T08:27:51;96.60;;;43.25;;
78931;SDS011;68331;53.362;55.932;2024-03-22T08:30:21;87.35;;;42.70;;
78931;SDS011;68331;53.362;55.932;2024-03-22T08:32:47;83.22;;;42.53;;
78931;SDS011;68331;53.362;55.932;2024-03-22T08:35:13;77.20;;;38.97;;
78931;SDS011;68331;53.362;55.932;2024-03-22T08:37:39;83.93;;;41.65;;
78931;SDS011;68331;53.362;55.932;2024-03-22T08:40:05;90.90;;;42.95;;
78931;SDS011;68331;53.362;55.932;2024-03-22T08:42:33;91.18;;;43.63;;
78931;SDS011;68331;53.362;55.932;2024-03-22T08:44:59;76.15;;;39.72;;
78931;SDS011;68331;53.362;55.932;2024-03-22T08:47:25;72.85;;;39.17;;
78931;SDS011;68331;53.362;55.932;2024-03-22T08:49:51;72.57;;;38.45;;
78931;SDS011;68331;53.362;55.932;2024-03-22T08:52:17;76.97;;;40.58;;
78931;SDS011;68331;53.362;55.932;2024-03-22T08:54:43;79.00;;;38.75;;
78931;SDS011;68331;53.362;55.932;2024-03-22T08:57:09;71.82;;;37.70;;
78931;SDS011;68331;53.362;55.932;2024-03-22T08:59:34;68.97;;;36.70;;
78931;SDS011;68331;53.362;55.932;2024-03-22T09:02:00;68.07;;;35.58;;
78931;SDS011;68331;53.362;55.932;2024-03-22T09:04:26;65.50;;;34.33;;
78931;SDS011;68331;53.362;55.932;2024-03-22T09:06:52;71.93;;;34.75;;
78931;SDS011;68331;53.362;55.932;2024-03-22T09:09:18;73.10;;;34.63;;
78931;SDS011;68331;53.362;55.932;2024-03-22T09:11:46;86.32;;;37.58;;
78931;SDS011;68331;53.362;55.932;2024-03-22T09:14:12;56.80;;;29.75;;
78931;SDS011;68331;53.362;55.932;2024-03-22T09:16:38;55.08;;;27.98;;
78931;SDS011;68331;53.362;55.932;2024-03-22T09:19:04;46.90;;;25.30;;
78931;SDS011;68331;53.362;55.932;2024-03-22T09:21:30;41.83;;;23.15;;
78931;SDS011;68331;53.362;55.932;2024-03-22T09:23:57;51.10;;;25.02;;
78931;SDS011;68331;53.362;55.932;2024-03-22T09:26:23;44.38;;;25.40;;
78931;SDS011;68331;53.362;55.932;2024-03-22T09:28:49;45.88;;;25.75;;
78931;SDS011;68331;53.362;55.932;2024-03-22T09:31:17;42.72;;;24.60;;
78931;SDS011;68331;53.362;55.932;2024-03-22T09:33:43;54.75;;;28.20;;
78931;SDS011;68331;53.362;55.932;2024-03-22T09:36:09;50.42;;;26.98;;
78931;SDS011;68331;53.362;55.932;2024-03-22T09:38:35;59.80;;;29.10;;
78931;SDS011;68331;53.362;55.932;2024-03-22T09:41:01;47.40;;;26.90;;
78931;SDS011;68331;53.362;55.932;2024-03-22T09:43:27;69.30;;;31.67;;
78931;SDS011;68331;53.362;55.932;2024-03-22T09:45:56;45.53;;;26.35;;
78931;SDS011;68331;53.362;55.932;2024-03-22T09:48:23;44.80;;;24.95;;
78931;SDS011;68331;53.362;55.932;2024-03-22T09:50:50;43.88;;;22.70;;
78931;SDS011;68331;53.362;55.932;2024-03-22T09:53:17;37.00;;;21.50;;
78931;SDS011;68331;53.362;55.932;2024-03-22T09:58:13;40.45;;;23.02;;
78931;SDS011;68331;53.362;55.932;2024-03-22T10:00:40;37.50;;;21.38;;
78931;SDS011;68331;53.362;55.932;2024-03-22T10:03:06;45.17;;;24.00;;
78931;SDS011;68331;53.362;55.932;2024-03-22T10:08:00;43.88;;;24.10;;
78931;SDS011;68331;53.362;55.932;2024-03-22T10:10:25;42.50;;;23.50;;
78931;SDS011;68331;53.362;55.932;2024-03-22T10:12:51;37.95;;;20.38;;
78931;SDS011;68331;53.362;55.932;2024-03-22T10:15:18;38.25;;;20.70;;
78931;SDS011;68331;53.362;55.932;2024-03-22T10:17:45;33.92;;;19.48;;
78931;SDS011;68331;53.362;55.932;2024-03-22T10:20:14;43.88;;;21.40;;
78931;SDS011;68331;53.362;55.932;2024-03-22T10:22:43;31.90;;;19.02;;
78931;SDS011;68331;53.362;55.932;2024-03-22T10:25:14;34.42;;;20.10;;
78931;SDS011;68331;53.362;55.932;2024-03-22T10:27:40;39.38;;;23.15;;
78931;SDS011;68331;53.362;55.932;2024-03-22T10:30:08;42.67;;;22.73;;
78931;SDS011;68331;53.362;55.932;2024-03-22T10:32:37;41.70;;;23.50;;
78931;SDS011;68331;53.362;55.932;2024-03-22T10:35:04;34.17;;;21.20;;
78931;SDS011;68331;53.362;55.932;2024-03-22T10:37:34;39.50;;;21.40;;
78931;SDS011;68331;53.362;55.932;2024-03-22T10:40:01;38.75;;;22.83;;
78931;SDS011;68331;53.362;55.932;2024-03-22T10:42:37;64.15;;;23.63;;
78931;SDS011;68331;53.362;55.932;2024-03-22T10:45:05;40.88;;;21.27;;
78931;SDS011;68331;53.362;55.932;2024-03-22T10:47:33;39.90;;;20.98;;
78931;SDS011;68331;53.362;55.932;2024-03-22T10:52:36;37.25;;;20.25;;
78931;SDS011;68331;53.362;55.932;2024-03-22T10:55:13;37.17;;;20.30;;
78931;SDS011;68331;53.362;55.932;2024-03-22T11:00:12;41.22;;;20.15;;
78931;SDS011;68331;53.362;55.932;2024-03-22T11:02:43;39.30;;;21.80;;
78931;SDS011;68331;53.362;55.932;2024-03-22T11:05:18;36.63;;;20.25;;
78931;SDS011;68331;53.362;55.932;2024-03-22T11:07:44;38.67;;;21.10;;
78931;SDS011;68331;53.362;55.932;2024-03-22T11:10:14;40.88;;;23.42;;
78931;SDS011;68331;53.362;55.932;2024-03-22T11:12:40;39.53;;;22.95;;
78931;SDS011;68331;53.362;55.932;2024-03-22T11:15:07;38.47;;;21.77;;
78931;SDS011;68331;53.362;55.932;2024-03-22T11:17:36;35.50;;;20.95;;
78931;SDS011;68331;53.362;55.932;2024-03-22T11:20:02;53.78;;;24.20;;
78931;SDS011;68331;53.362;55.932;2024-03-22T11:22:29;39.05;;;22.10;;
78931;SDS011;68331;53.362;55.932;2024-03-22T11:24:55;34.53;;;21.52;;
78931;SDS011;68331;53.362;55.932;2024-03-22T11:27:21;38.08;;;21.10;;
78931;SDS011;68331;53.362;55.932;2024-03-22T11:29:46;29.42;;;20.17;;
78931;SDS011;68331;53.362;55.932;2024-03-22T11:32:13;36.05;;;20.70;;
78931;SDS011;68331;53.362;55.932;2024-03-22T11:34:40;41.42;;;22.83;;
78931;SDS011;68331;53.362;55.932;2024-03-22T11:37:06;42.67;;;23.60;;
78931;SDS011;68331;53.362;55.932;2024-03-22T11:39:36;40.88;;;24.05;;
78931;SDS011;68331;53.362;55.932;2024-03-22T11:42:03;35.17;;;21.67;;
78931;SDS011;68331;53.362;55.932;2024-03-22T11:44:31;42.58;;;22.80;;
78931;SDS011;68331;53.362;55.932;2024-03-22T11:46:59;38.40;;;21.35;;
78931;SDS011;68331;53.362;55.932;2024-03-22T11:49:25;39.47;;;21.80;;
78931;SDS011;68331;53.362;55.932;2024-03-22T11:51:52;38.55;;;22.98;;
78931;SDS011;68331;53.362;55.932;2024-03-22T11:54:21;40.65;;;23.35;;
78931;SDS011;68331;53.362;55.932;2024-03-22T11:56:47;36.03;;;20.92;;
78931;SDS011;68331;53.362;55.932;2024-03-22T11:59:13;36.20;;;20.05;;
78931;SDS011;68331;53.362;55.932;2024-03-22T12:01:40;38.08;;;19.92;;
78931;SDS011;68331;53.362;55.932;2024-03-22T12:04:06;33.17;;;19.75;;
78931;SDS011;68331;53.362;55.932;2024-03-22T12:06:36;36.17;;;19.27;;
78931;SDS011;68331;53.362;55.932;2024-03-22T12:09:02;32.95;;;18.58;;
78931;SDS011;68331;53.362;55.932;2024-03-22T12:11:28;37.60;;;19.77;;
78931;SDS011;68331;53.362;55.932;2024-03-22T12:13:54;36.72;;;20.08;;
78931;SDS011;68331;53.362;55.932;2024-03-22T12:16:20;31.00;;;17.90;;
78931;SDS011;68331;53.362;55.932;2024-03-22T12:18:46;28.95;;;16.88;;
78931;SDS011;68331;53.362;55.932;2024-03-22T12:21:12;29.88;;;17.20;;
78931;SDS011;68331;53.362;55.932;2024-03-22T12:23:38;35.17;;;19.10;;
78931;SDS011;68331;53.362;55.932;2024-03-22T12:26:04;33.22;;;20.33;;
78931;SDS011;68331;53.362;55.932;2024-03-22T12:28:30;31.23;;;19.17;;
78931;SDS011;68331;53.362;55.932;2024-03-22T12:30:56;30.70;;;19.42;;
78931;SDS011;68331;53.362;55.932;2024-03-22T12:33:21;30.65;;;19.67;;
78931;SDS011;68331;53.362;55.932;2024-03-22T12:35:47;31.50;;;17.65;;
78931;SDS011;68331;53.362;55.932;2024-03-22T12:38:14;32.78;;;17.52;;
78931;SDS011;68331;53.362;55.932;2024-03-22T12:40:40;29.42;;;16.55;;
78931;SDS011;68331;53.362;55.932;2024-03-22T12:43:07;32.15;;;17.30;;
78931;SDS011;68331;53.362;55.932;2024-03-22T12:45:35;28.40;;;17.63;;
78931;SDS011;68331;53.362;55.932;2024-03-22T12:48:01;28.75;;;15.98;;
78931;SDS011;68331;53.362;55.932;2024-03-22T12:50:27;30.25;;;15.00;;
78931;SDS011;68331;53.362;55.932;2024-03-22T12:52:53;16.65;;;9.88;;
78931;SDS011;68331;53.362;55.932;2024-03-22T12:55:19;12.25;;;7.25;;
78931;SDS011;68331;53.362;55.932;2024-03-22T12:57:45;18.23;;;9.00;;
78931;SDS011;68331;53.362;55.932;2024-03-22T13:00:11;10.07;;;6.80;;
78931;SDS011;68331;53.362;55.932;2024-03-22T13:02:41;19.42;;;7.57;;
78931;SDS011;68331;53.362;55.932;2024-03-22T13:05:07;10.40;;;7.07;;
78931;SDS011;68331;53.362;55.932;2024-03-22T13:07:34;12.57;;;7.53;;
78931;SDS011;68331;53.362;55.932;2024-03-22T13:10:00;11.38;;;6.93;;
78931;SDS011;68331;53.362;55.932;2024-03-22T13:12:26;14.07;;;7.13;;
78931;SDS011;68331;53.362;55.932;2024-03-22T13:14:52;14.52;;;6.85;;
78931;SDS011;68331;53.362;55.932;2024-03-22T13:17:18;11.40;;;5.95;;
78931;SDS011;68331;53.362;55.932;2024-03-22T13:19:44;11.73;;;6.38;;
78931;SDS011;68331;53.362;55.932;2024-03-22T13:22:10;9.60;;;7.25;;
78931;SDS011;68331;53.362;55.932;2024-03-22T13:24:36;11.10;;;6.55;;
78931;SDS011;68331;53.362;55.932;2024-03-22T13:27:02;17.83;;;7.50;;
78931;SDS011;68331;53.362;55.932;2024-03-22T13:29:28;9.90;;;8.02;;
78931;SDS011;68331;53.362;55.932;2024-03-22T13:31:54;25.27;;;9.40;;
78931;SDS011;68331;53.362;55.932;2024-03-22T13:34:20;14.80;;;8.98;;
78931;SDS011;68331;53.362;55.932;2024-03-22T13:36:46;25.98;;;12.48;;
78931;SDS011;68331;53.362;55.932;2024-03-22T13:39:12;27.70;;;14.45;;
78931;SDS011;68331;53.362;55.932;2024-03-22T13:41:41;30.08;;;14.65;;
78931;SDS011;68331;53.362;55.932;2024-03-22T13:44:07;27.83;;;15.18;;
78931;SDS011;68331;53.362;55.932;2024-03-22T13:46:33;28.60;;;14.75;;
78931;SDS011;68331;53.362;55.932;2024-03-22T13:49:13;44.70;;;17.23;;
78931;SDS011;68331;53.362;55.932;2024-03-22T13:51:43;37.33;;;15.18;;
78931;SDS011;68331;53.362;55.932;2024-03-22T13:54:11;52.17;;;15.95;;
78931;SDS011;68331;53.362;55.932;2024-03-22T13:59:04;18.48;;;8.23;;
78931;SDS011;68331;53.362;55.932;2024-03-22T14:01:34;12.55;;;7.10;;
78931;SDS011;68331;53.362;55.932;2024-03-22T14:04:01;13.88;;;8.13;;
78931;SDS011;68331;53.362;55.932;2024-03-22T14:06:29;16.95;;;7.95;;
78931;SDS011;68331;53.362;55.932;2024-03-22T14:08:56;15.60;;;7.57;;
78931;SDS011;68331;53.362;55.932;2024-03-22T14:11:26;13.60;;;7.68;;
78931;SDS011;68331;53.362;55.932;2024-03-22T14:13:53;23.40;;;9.85;;
78931;SDS011;68331;53.362;55.932;2024-03-22T14:16:19;30.83;;;10.73;;
78931;SDS011;68331;53.362;55.932;2024-03-22T14:18:45;38.80;;;11.43;;
78931;SDS011;68331;53.362;55.932;2024-03-22T14:21:11;22.52;;;11.13;;
78931;SDS011;68331;53.362;55.932;2024-03-22T14:23:39;24.52;;;10.65;;
78931;SDS011;68331;53.362;55.932;2024-03-22T14:26:05;23.38;;;11.40;;